PWSweather.com
Personal Weather Stations
Station Observations
KWABLAIN13
Ptl Weather, Blaine, WA

Ptl WeatherBlaine, WA

Lat: 48.997393, Lon: -122.748614

Elevation: 57

Station Type: Davis Advantage Pro 2

http://www.ptlnet.net

Latest ConditionsUpdated 3:25:00 PM PST Sunday, Dec 16, 2018
Currently Today's Max Today's Min Today's Average
Temperature 46.3°F7.9°C 51.1°F10.6°C 42.0°F5.6°C 45.4°F7.4°C
Dew Point 44.7°F7.1°C 45.5°F7.5°C 38.0°F3.3°C 42.2°F5.7°C
Winds Calm Calm 12.0 mph -19.3 kmh - - 4.2 mph 6.8 kmh
Wind Gusts 3.0 mph4.8 kmh 16.0 mph25.7 kmh - -
Humidity 94% 94% 75% 89%
Pressure 29.60 in1002.4 mb 29.81 in1009.5 mb 29.58 in1001.7 mb -
Hour Temp Dew Point Humidity Winds Wind Gusts Pressure Precip Precip Rate Daily Precip Total
03:25 PM 46.3°F7.9°C 44.7°F7.1°C 94% Calm Calm 3.0 mph4.8 kmh 29.60 in1002.4 mb 0.03 in0.8 mm 0.00 in0.0 mm 0.15 in3.8 mm
03:10 PM 46.5°F8.1°C 44.9°F7.2°C 94% 1.0 mph NE1.6 kmh NE 4.0 mph6.4 kmh 29.60 in1002.4 mb 0.03 in0.8 mm 0.00 in0.0 mm 0.15 in3.8 mm
03:05 PM 46.6°F8.1°C 44.7°F7.1°C 93% 2.0 mph NE3.2 kmh NE 4.0 mph6.4 kmh 29.59 in1002.0 mb 0.03 in0.8 mm 0.01 in0.3 mm 0.15 in3.8 mm
02:49 PM 46.8°F8.2°C 44.9°F7.2°C 93% Calm Calm 2.0 mph3.2 kmh 29.59 in1002.0 mb 0.02 in0.5 mm 0.00 in0.0 mm 0.14 in3.6 mm
02:45 PM 46.9°F8.3°C 44.7°F7.1°C 92% Calm Calm 2.0 mph3.2 kmh 29.59 in1002.0 mb 0.02 in0.5 mm 0.04 in1.0 mm 0.14 in3.6 mm
02:29 PM 47.0°F8.3°C 44.5°F6.9°C 91% 3.0 mph N4.8 kmh N 3.0 mph4.8 kmh 29.59 in1002.0 mb 0.01 in0.3 mm 0.00 in0.0 mm 0.13 in3.3 mm
02:25 PM 47.1°F8.4°C 44.6°F7.0°C 91% 2.0 mph NNE3.2 kmh NNE 3.0 mph4.8 kmh 29.59 in1002.0 mb 0.01 in0.3 mm 0.00 in0.0 mm 0.13 in3.3 mm
02:10 PM 47.3°F8.5°C 44.5°F6.9°C 90% 1.0 mph NE1.6 kmh NE 3.0 mph4.8 kmh 29.58 in1001.7 mb 0.01 in0.3 mm 0.00 in0.0 mm 0.13 in3.3 mm
02:05 PM 47.4°F8.6°C 44.6°F7.0°C 90% 2.0 mph NE3.2 kmh NE 3.0 mph4.8 kmh 29.58 in1001.7 mb 0.01 in0.3 mm 0.00 in0.0 mm 0.13 in3.3 mm
01:50 PM 47.7°F8.7°C 44.6°F7.0°C 89% 1.0 mph NE1.6 kmh NE 2.0 mph3.2 kmh 29.58 in1001.7 mb 0.01 in0.3 mm 0.00 in0.0 mm 0.13 in3.3 mm
01:45 PM 47.8°F8.8°C 44.7°F7.1°C 89% 2.0 mph NE3.2 kmh NE 3.0 mph4.8 kmh 29.58 in1001.7 mb 0.01 in0.3 mm 0.00 in0.0 mm 0.13 in3.3 mm
01:30 PM 48.1°F8.9°C 44.7°F7.1°C 88% 1.0 mph NNE1.6 kmh NNE 4.0 mph6.4 kmh 29.58 in1001.7 mb 0.01 in0.3 mm 0.00 in0.0 mm 0.13 in3.3 mm
01:25 PM 48.2°F9.0°C 44.8°F7.1°C 88% 2.0 mph N3.2 kmh N 4.0 mph6.4 kmh 29.59 in1002.0 mb 0.01 in0.3 mm 0.04 in1.0 mm 0.13 in3.3 mm
01:10 PM 48.5°F9.2°C 44.8°F7.1°C 87% Calm Calm 2.0 mph3.2 kmh 29.59 in1002.0 mb 0.00 in0.0 mm 0.00 in0.0 mm 0.12 in3.0 mm
01:05 PM 48.6°F9.2°C 44.6°F7.0°C 86% Calm Calm -- 29.59 in1002.0 mb 0.00 in0.0 mm 0.00 in0.0 mm 0.12 in3.0 mm
12:50 PM 48.9°F9.4°C 44.9°F7.2°C 86% Calm Calm -- 29.59 in1002.0 mb 0.00 in0.0 mm 0.00 in0.0 mm 0.12 in3.0 mm
12:45 PM 49.1°F9.5°C 44.8°F7.1°C 85% Calm Calm -- 29.59 in1002.0 mb 0.00 in0.0 mm 0.00 in0.0 mm 0.12 in3.0 mm
12:30 PM 49.7°F9.8°C 45.4°F7.4°C 85% Calm Calm -- 29.59 in1002.0 mb 0.00 in0.0 mm 0.00 in0.0 mm 0.12 in3.0 mm
12:25 PM 49.9°F9.9°C 45.3°F7.4°C 84% Calm Calm -- 29.59 in1002.0 mb 0.00 in0.0 mm 0.00 in0.0 mm 0.12 in3.0 mm
12:10 PM 50.7°F10.4°C 45.1°F7.3°C 81% Calm Calm 2.0 mph3.2 kmh 29.59 in1002.0 mb 0.00 in0.0 mm 0.00 in0.0 mm 0.12 in3.0 mm
12:05 PM 50.9°F10.5°C 45.0°F7.2°C 80% Calm Calm 2.0 mph3.2 kmh 29.58 in1001.7 mb 0.00 in0.0 mm 0.00 in0.0 mm 0.12 in3.0 mm
11:50 AM 51.0°F10.6°C 44.7°F7.1°C 79% 4.0 mph ESE6.4 kmh ESE 8.0 mph12.9 kmh 29.59 in1002.0 mb 0.00 in0.0 mm 0.00 in0.0 mm 0.12 in3.0 mm
11:45 AM 51.1°F10.6°C 44.8°F7.1°C 79% 2.0 mph E3.2 kmh E 7.0 mph11.3 kmh 29.59 in1002.0 mb 0.00 in0.0 mm 0.00 in0.0 mm 0.12 in3.0 mm
11:30 AM 51.1°F10.6°C 44.8°F7.1°C 79% 8.0 mph E12.9 kmh E 13.0 mph20.9 kmh 29.59 in1002.0 mb 0.00 in0.0 mm 0.00 in0.0 mm 0.12 in3.0 mm
11:25 AM 51.0°F10.6°C 45.1°F7.3°C 80% 4.0 mph E6.4 kmh E 9.0 mph14.5 kmh 29.60 in1002.4 mb 0.00 in0.0 mm 0.00 in0.0 mm 0.12 in3.0 mm
11:10 AM 50.5°F10.3°C 45.2°F7.3°C 82% 3.0 mph ESE4.8 kmh ESE 12.0 mph19.3 kmh 29.60 in1002.4 mb 0.00 in0.0 mm 0.00 in0.0 mm 0.12 in3.0 mm
11:05 AM 50.5°F10.3°C 45.5°F7.5°C 83% 4.0 mph ESE6.4 kmh ESE 11.0 mph17.7 kmh 29.60 in1002.4 mb 0.00 in0.0 mm 0.00 in0.0 mm 0.12 in3.0 mm
10:50 AM 49.3°F9.6°C 45.0°F7.2°C 85% 8.0 mph E12.9 kmh E 11.0 mph17.7 kmh 29.60 in1002.4 mb 0.00 in0.0 mm 0.00 in0.0 mm 0.12 in3.0 mm
10:45 AM 49.2°F9.6°C 44.9°F7.2°C 85% 4.0 mph E6.4 kmh E 5.0 mph8.0 kmh 29.60 in1002.4 mb 0.00 in0.0 mm 0.00 in0.0 mm 0.12 in3.0 mm
10:29 AM 49.5°F9.7°C 45.2°F7.3°C 85% 3.0 mph NE4.8 kmh NE 9.0 mph14.5 kmh 29.61 in1002.7 mb 0.00 in0.0 mm 0.00 in0.0 mm 0.12 in3.0 mm
10:25 AM 49.3°F9.6°C 45.0°F7.2°C 85% 5.0 mph ESE8.0 kmh ESE 9.0 mph14.5 kmh 29.60 in1002.4 mb 0.00 in0.0 mm 0.00 in0.0 mm 0.12 in3.0 mm
10:10 AM 49.7°F9.8°C 45.4°F7.4°C 85% 8.0 mph E12.9 kmh E 12.0 mph19.3 kmh 29.61 in1002.7 mb 0.00 in0.0 mm 0.00 in0.0 mm 0.12 in3.0 mm
10:05 AM 49.5°F9.7°C 44.9°F7.2°C 84% 5.0 mph NE8.0 kmh NE 11.0 mph17.7 kmh 29.61 in1002.7 mb 0.00 in0.0 mm 0.00 in0.0 mm 0.12 in3.0 mm
09:50 AM 48.7°F9.3°C 44.7°F7.1°C 86% 7.0 mph E11.3 kmh E 7.0 mph11.3 kmh 29.61 in1002.7 mb 0.00 in0.0 mm 0.00 in0.0 mm 0.12 in3.0 mm
09:45 AM 48.1°F8.9°C 44.4°F6.9°C 87% 6.0 mph ESE9.7 kmh ESE 16.0 mph25.7 kmh 29.61 in1002.7 mb 0.00 in0.0 mm 0.00 in0.0 mm 0.12 in3.0 mm
09:30 AM 46.2°F7.9°C 44.0°F6.7°C 92% 2.0 mph E3.2 kmh E 9.0 mph14.5 kmh 29.62 in1003.0 mb 0.00 in0.0 mm 0.00 in0.0 mm 0.12 in3.0 mm
09:25 AM 45.5°F7.5°C 43.6°F6.4°C 93% 5.0 mph E8.0 kmh E 7.0 mph11.3 kmh 29.62 in1003.0 mb 0.00 in0.0 mm 0.00 in0.0 mm 0.12 in3.0 mm
09:10 AM 44.7°F7.1°C 42.5°F5.8°C 92% 2.0 mph NE3.2 kmh NE 4.0 mph6.4 kmh 29.62 in1003.0 mb 0.00 in0.0 mm 0.00 in0.0 mm 0.12 in3.0 mm
09:05 AM 44.6°F7.0°C 42.4°F5.8°C 92% Calm Calm 4.0 mph6.4 kmh 29.62 in1003.0 mb 0.00 in0.0 mm 0.00 in0.0 mm 0.12 in3.0 mm
08:50 AM 44.5°F6.9°C 42.3°F5.7°C 92% 3.0 mph NE4.8 kmh NE 6.0 mph9.7 kmh 29.63 in1003.4 mb 0.00 in0.0 mm 0.00 in0.0 mm 0.12 in3.0 mm
08:44 AM 44.4°F6.9°C 42.2°F5.7°C 92% 3.0 mph ESE4.8 kmh ESE 6.0 mph9.7 kmh 29.63 in1003.4 mb 0.00 in0.0 mm 0.00 in0.0 mm 0.12 in3.0 mm
08:30 AM 44.2°F6.8°C 42.0°F5.6°C 92% 4.0 mph NE6.4 kmh NE 8.0 mph12.9 kmh 29.62 in1003.0 mb 0.01 in0.3 mm 0.00 in0.0 mm 0.12 in3.0 mm
08:24 AM 44.1°F6.7°C 41.9°F5.5°C 92% 5.0 mph NNE8.0 kmh NNE 8.0 mph12.9 kmh 29.62 in1003.0 mb 0.01 in0.3 mm 0.00 in0.0 mm 0.12 in3.0 mm
08:09 AM 43.9°F6.6°C 41.7°F5.4°C 92% 5.0 mph NE8.0 kmh NE 9.0 mph14.5 kmh 29.62 in1003.0 mb 0.02 in0.5 mm 0.00 in0.0 mm 0.12 in3.0 mm
08:05 AM 43.9°F6.6°C 41.7°F5.4°C 92% 9.0 mph ENE14.5 kmh ENE 9.0 mph14.5 kmh 29.62 in1003.0 mb 0.02 in0.5 mm 0.00 in0.0 mm 0.12 in3.0 mm
07:49 AM 43.7°F6.5°C 41.5°F5.3°C 92% 7.0 mph NE11.3 kmh NE 11.0 mph17.7 kmh 29.63 in1003.4 mb 0.02 in0.5 mm 0.00 in0.0 mm 0.12 in3.0 mm
07:45 AM 43.6°F6.4°C 41.4°F5.2°C 92% 2.0 mph ENE3.2 kmh ENE 11.0 mph17.7 kmh 29.62 in1003.0 mb 0.02 in0.5 mm 0.00 in0.0 mm 0.12 in3.0 mm
07:30 AM 43.7°F6.5°C 41.8°F5.4°C 93% Calm Calm 10.0 mph16.1 kmh 29.63 in1003.4 mb 0.03 in0.8 mm 0.00 in0.0 mm 0.12 in3.0 mm
07:25 AM 43.6°F6.4°C 41.7°F5.4°C 93% 2.0 mph ESE3.2 kmh ESE 9.0 mph14.5 kmh 29.63 in1003.4 mb 0.03 in0.8 mm 0.04 in1.0 mm 0.12 in3.0 mm
07:10 AM 43.6°F6.4°C 41.7°F5.4°C 93% 5.0 mph NE8.0 kmh NE 11.0 mph17.7 kmh 29.63 in1003.4 mb 0.02 in0.5 mm 0.00 in0.0 mm 0.11 in2.8 mm
07:05 AM 43.6°F6.4°C 41.7°F5.4°C 93% 8.0 mph ENE12.9 kmh ENE 9.0 mph14.5 kmh 29.63 in1003.4 mb 0.02 in0.5 mm 0.00 in0.0 mm 0.11 in2.8 mm
06:50 AM 43.6°F6.4°C 41.4°F5.2°C 92% 11.0 mph NNE17.7 kmh NNE 13.0 mph20.9 kmh 29.63 in1003.4 mb 0.02 in0.5 mm 0.00 in0.0 mm 0.11 in2.8 mm
06:45 AM 43.6°F6.4°C 41.4°F5.2°C 92% 2.0 mph ENE3.2 kmh ENE 13.0 mph20.9 kmh 29.63 in1003.4 mb 0.02 in0.5 mm 0.04 in1.0 mm 0.11 in2.8 mm
06:29 AM 43.5°F6.4°C 41.3°F5.2°C 92% 3.0 mph NE4.8 kmh NE 12.0 mph19.3 kmh 29.63 in1003.4 mb 0.01 in0.3 mm 0.00 in0.0 mm 0.10 in2.5 mm
06:25 AM 43.4°F6.3°C 41.2°F5.1°C 92% 5.0 mph NE8.0 kmh NE 12.0 mph19.3 kmh 29.63 in1003.4 mb 0.01 in0.3 mm 0.00 in0.0 mm 0.10 in2.5 mm
06:10 AM 43.3°F6.3°C 41.1°F5.1°C 92% 8.0 mph NE12.9 kmh NE 8.0 mph12.9 kmh 29.64 in1003.7 mb 0.02 in0.5 mm 0.00 in0.0 mm 0.10 in2.5 mm
06:05 AM 43.3°F6.3°C 41.4°F5.2°C 93% 3.0 mph NE4.8 kmh NE 13.0 mph20.9 kmh 29.64 in1003.7 mb 0.02 in0.5 mm 0.00 in0.0 mm 0.10 in2.5 mm
05:50 AM 43.0°F6.1°C 41.1°F5.1°C 93% 9.0 mph NNE14.5 kmh NNE 9.0 mph14.5 kmh 29.65 in1004.1 mb 0.02 in0.5 mm 0.00 in0.0 mm 0.10 in2.5 mm
05:44 AM 42.9°F6.1°C 41.0°F5.0°C 93% 6.0 mph NE9.7 kmh NE 12.0 mph19.3 kmh 29.65 in1004.1 mb 0.03 in0.8 mm 0.00 in0.0 mm 0.10 in2.5 mm
05:30 AM 42.6°F5.9°C 40.7°F4.8°C 93% 4.0 mph NE6.4 kmh NE 10.0 mph16.1 kmh 29.65 in1004.1 mb 0.04 in1.0 mm 0.00 in0.0 mm 0.10 in2.5 mm
05:25 AM 42.5°F5.8°C 40.6°F4.8°C 93% 3.0 mph NE4.8 kmh NE 10.0 mph16.1 kmh 29.66 in1004.4 mb 0.04 in1.0 mm 0.00 in0.0 mm 0.10 in2.5 mm
05:10 AM 42.4°F5.8°C 40.5°F4.7°C 93% 6.0 mph NE9.7 kmh NE 11.0 mph17.7 kmh 29.67 in1004.7 mb 0.04 in1.0 mm 0.00 in0.0 mm 0.10 in2.5 mm
05:04 AM 42.4°F5.8°C 40.5°F4.7°C 93% 4.0 mph NE6.4 kmh NE 10.0 mph16.1 kmh 29.67 in1004.7 mb 0.04 in1.0 mm 0.00 in0.0 mm 0.10 in2.5 mm
04:49 AM 42.3°F5.7°C 40.4°F4.7°C 93% 2.0 mph NE3.2 kmh NE 10.0 mph16.1 kmh 29.67 in1004.7 mb 0.05 in1.3 mm 0.12 in3.0 mm 0.10 in2.5 mm
04:44 AM 42.3°F5.7°C 40.4°F4.7°C 93% 3.0 mph NNE4.8 kmh NNE 10.0 mph16.1 kmh 29.68 in1005.1 mb 0.04 in1.0 mm 0.00 in0.0 mm 0.09 in2.3 mm
04:29 AM 42.3°F5.7°C 40.2°F4.6°C 92% 9.0 mph ENE14.5 kmh ENE 11.0 mph17.7 kmh 29.69 in1005.4 mb 0.04 in1.0 mm 0.00 in0.0 mm 0.09 in2.3 mm
04:25 AM 42.3°F5.7°C 40.2°F4.6°C 92% 9.0 mph NNE14.5 kmh NNE 10.0 mph16.1 kmh 29.69 in1005.4 mb 0.04 in1.0 mm 0.08 in2.0 mm 0.09 in2.3 mm
04:10 AM 42.3°F5.7°C 39.9°F4.4°C 91% 5.0 mph NE8.0 kmh NE 16.0 mph25.7 kmh 29.69 in1005.4 mb 0.02 in0.5 mm 0.00 in0.0 mm 0.07 in1.8 mm
04:05 AM 42.3°F5.7°C 39.9°F4.4°C 91% 9.0 mph NNE14.5 kmh NNE 16.0 mph25.7 kmh 29.69 in1005.4 mb 0.02 in0.5 mm 0.00 in0.0 mm 0.07 in1.8 mm
03:50 AM 42.3°F5.7°C 39.9°F4.4°C 91% 4.0 mph NE6.4 kmh NE 5.0 mph8.0 kmh 29.70 in1005.8 mb 0.03 in0.8 mm 0.12 in3.0 mm 0.07 in1.8 mm
03:45 AM 42.2°F5.7°C 40.1°F4.5°C 92% 10.0 mph ENE16.1 kmh ENE 13.0 mph20.9 kmh 29.71 in1006.1 mb 0.02 in0.5 mm 0.00 in0.0 mm 0.06 in1.5 mm
03:30 AM 42.1°F5.6°C 40.0°F4.4°C 92% 8.0 mph NNE12.9 kmh NNE 15.0 mph24.1 kmh 29.71 in1006.1 mb 0.03 in0.8 mm 0.00 in0.0 mm 0.06 in1.5 mm
03:25 AM 42.1°F5.6°C 40.0°F4.4°C 92% 8.0 mph NE12.9 kmh NE 14.0 mph22.5 kmh 29.71 in1006.1 mb 0.03 in0.8 mm 0.00 in0.0 mm 0.06 in1.5 mm
03:09 AM 42.0°F5.6°C 39.9°F4.4°C 92% 9.0 mph NE14.5 kmh NE 12.0 mph19.3 kmh 29.72 in1006.4 mb 0.05 in1.3 mm 0.00 in0.0 mm 0.06 in1.5 mm
03:05 AM 42.0°F5.6°C 39.9°F4.4°C 92% 3.0 mph NNE4.8 kmh NNE 12.0 mph19.3 kmh 29.73 in1006.8 mb 0.05 in1.3 mm 0.01 in0.3 mm 0.06 in1.5 mm
02:50 AM 42.0°F5.6°C 39.6°F4.2°C 91% 4.0 mph NE6.4 kmh NE 15.0 mph24.1 kmh 29.74 in1007.1 mb 0.04 in1.0 mm 0.00 in0.0 mm 0.05 in1.3 mm
02:45 AM 42.1°F5.6°C 39.7°F4.3°C 91% 5.0 mph ENE8.0 kmh ENE 10.0 mph16.1 kmh 29.75 in1007.5 mb 0.04 in1.0 mm 0.03 in0.8 mm 0.05 in1.3 mm
02:10 AM 42.4°F5.8°C 39.4°F4.1°C 89% 3.0 mph ESE4.8 kmh ESE 11.0 mph17.7 kmh 29.77 in1008.1 mb 0.02 in0.5 mm 0.12 in3.0 mm 0.03 in0.8 mm
02:05 AM 42.4°F5.8°C 39.4°F4.1°C 89% 2.0 mph SSE3.2 kmh SSE 11.0 mph17.7 kmh 29.77 in1008.1 mb 0.01 in0.3 mm 0.00 in0.0 mm 0.02 in0.5 mm
01:50 AM 42.3°F5.7°C 39.3°F4.1°C 89% 12.0 mph NNE19.3 kmh NNE 12.0 mph19.3 kmh 29.76 in1007.8 mb 0.02 in0.5 mm 0.00 in0.0 mm 0.02 in0.5 mm
01:45 AM 42.2°F5.7°C 39.2°F4.0°C 89% 6.0 mph ENE9.7 kmh ENE 11.0 mph17.7 kmh 29.77 in1008.1 mb 0.02 in0.5 mm 0.00 in0.0 mm 0.02 in0.5 mm
01:25 AM 42.1°F5.6°C 38.8°F3.8°C 88% 4.0 mph NNE6.4 kmh NNE 12.0 mph19.3 kmh 29.77 in1008.1 mb 0.02 in0.5 mm 0.00 in0.0 mm 0.02 in0.5 mm
01:10 AM 42.3°F5.7°C 38.7°F3.7°C 87% 4.0 mph NE6.4 kmh NE 13.0 mph20.9 kmh 29.77 in1008.1 mb 0.02 in0.5 mm 0.00 in0.0 mm 0.02 in0.5 mm
01:05 AM 42.4°F5.8°C 38.8°F3.8°C 87% 4.0 mph NE6.4 kmh NE 11.0 mph17.7 kmh 29.77 in1008.1 mb 0.02 in0.5 mm 0.01 in0.3 mm 0.02 in0.5 mm
12:50 AM 43.0°F6.1°C 38.5°F3.6°C 84% 9.0 mph N14.5 kmh N 9.0 mph14.5 kmh 29.78 in1008.5 mb 0.01 in0.3 mm 0.00 in0.0 mm 0.01 in0.3 mm
12:45 AM 43.2°F6.2°C 38.7°F3.7°C 84% 9.0 mph NE14.5 kmh NE 11.0 mph17.7 kmh 29.78 in1008.5 mb 0.01 in0.3 mm 0.00 in0.0 mm 0.01 in0.3 mm
12:30 AM 44.0°F6.7°C 38.6°F3.7°C 81% 10.0 mph NNE16.1 kmh NNE 14.0 mph22.5 kmh 29.79 in1008.8 mb 0.01 in0.3 mm 0.00 in0.0 mm 0.01 in0.3 mm
12:25 AM 44.3°F6.8°C 38.5°F3.6°C 80% 3.0 mph NE4.8 kmh NE 14.0 mph22.5 kmh 29.80 in1009.1 mb 0.01 in0.3 mm 0.04 in1.0 mm 0.01 in0.3 mm
12:10 AM 45.2°F7.3°C 38.1°F3.4°C 76% 11.0 mph NE17.7 kmh NE 13.0 mph20.9 kmh 29.81 in1009.5 mb 0.00 in0.0 mm 0.00 in0.0 mm 0.00 in0.0 mm
12:05 AM 45.4°F7.4°C 38.0°F3.3°C 75% 3.0 mph NE4.8 kmh NE 13.0 mph20.9 kmh 29.81 in1009.5 mb 0.00 in0.0 mm 0.00 in0.0 mm 0.00 in0.0 mm